sensor_id;sensor_type;location;lat;lon;timestamp;pressure;altitude;pressure_sealevel;temperature;humidity
26719;BME280;14326;50.794;6.060;2023-01-29T00:01:54;101074.69;;;-2.93;100.00
26719;BME280;14326;50.794;6.060;2023-01-29T00:04:23;101068.06;;;-2.89;100.00
26719;BME280;14326;50.794;6.060;2023-01-29T00:06:50;101070.78;;;-2.98;100.00
26719;BME280;14326;50.794;6.060;2023-01-29T00:09:23;101069.22;;;-3.06;100.00
26719;BME280;14326;50.794;6.060;2023-01-29T00:11:59;101072.47;;;-3.08;100.00
26719;BME280;14326;50.794;6.060;2023-01-29T00:14:42;101064.38;;;-3.11;100.00
26719;BME280;14326;50.794;6.060;2023-01-29T00:17:13;101056.59;;;-3.11;100.00
26719;BME280;14326;50.794;6.060;2023-01-29T00:19:53;101048.66;;;-3.03;100.00
26719;BME280;14326;50.794;6.060;2023-01-29T00:22:31;101047.38;;;-3.08;100.00
26719;BME280;14326;50.794;6.060;2023-01-29T00:25:05;101044.09;;;-3.05;100.00
26719;BME280;14326;50.794;6.060;2023-01-29T00:27:39;101049.31;;;-3.05;100.00
26719;BME280;14326;50.794;6.060;2023-01-29T00:30:17;101050.50;;;-3.02;100.00
26719;BME280;14326;50.794;6.060;2023-01-29T00:32:46;101050.06;;;-3.06;100.00
26719;BME280;14326;50.794;6.060;2023-01-29T00:35:20;101047.75;;;-3.13;100.00
26719;BME280;14326;50.794;6.060;2023-01-29T00:37:51;101040.34;;;-3.19;100.00
26719;BME280;14326;50.794;6.060;2023-01-29T00:40:32;101037.75;;;-3.19;100.00
26719;BME280;14326;50.794;6.060;2023-01-29T00:43:21;101030.72;;;-3.20;100.00
26719;BME280;14326;50.794;6.060;2023-01-29T00:46:12;101029.91;;;-3.29;100.00
26719;BME280;14326;50.794;6.060;2023-01-29T00:48:40;101034.56;;;-3.35;100.00
26719;BME280;14326;50.794;6.060;2023-01-29T00:51:20;101027.97;;;-3.32;100.00
26719;BME280;14326;50.794;6.060;2023-01-29T00:53:52;101035.09;;;-3.39;100.00
26719;BME280;14326;50.794;6.060;2023-01-29T00:56:30;101031.72;;;-3.48;100.00
26719;BME280;14326;50.794;6.060;2023-01-29T00:58:59;101035.72;;;-3.52;100.00
26719;BME280;14326;50.794;6.060;2023-01-29T01:01:39;101024.03;;;-3.47;100.00
26719;BME280;14326;50.794;6.060;2023-01-29T01:04:23;101013.53;;;-3.38;100.00
26719;BME280;14326;50.794;6.060;2023-01-29T01:06:58;101022.75;;;-3.32;100.00
26719;BME280;14326;50.794;6.060;2023-01-29T01:09:29;101012.84;;;-3.36;100.00
26719;BME280;14326;50.794;6.060;2023-01-29T01:12:20;101019.50;;;-3.49;100.00
26719;BME280;14326;50.794;6.060;2023-01-29T01:14:54;101015.06;;;-3.50;100.00
26719;BME280;14326;50.794;6.060;2023-01-29T01:17:26;101013.91;;;-3.44;100.00
26719;BME280;14326;50.794;6.060;2023-01-29T01:20:01;101014.44;;;-3.48;100.00
26719;BME280;14326;50.794;6.060;2023-01-29T01:22:35;101021.03;;;-3.51;100.00
26719;BME280;14326;50.794;6.060;2023-01-29T01:25:04;101018.81;;;-3.57;100.00
26719;BME280;14326;50.794;6.060;2023-01-29T01:27:31;101039.09;;;-3.53;100.00
26719;BME280;14326;50.794;6.060;2023-01-29T01:30:07;101029.50;;;-3.54;100.00
26719;BME280;14326;50.794;6.060;2023-01-29T01:32:42;101032.09;;;-3.54;100.00
26719;BME280;14326;50.794;6.060;2023-01-29T01:35:12;101039.75;;;-3.55;100.00
26719;BME280;14326;50.794;6.060;2023-01-29T01:37:50;101033.66;;;-3.56;100.00
26719;BME280;14326;50.794;6.060;2023-01-29T01:40:23;101028.97;;;-3.60;100.00
26719;BME280;14326;50.794;6.060;2023-01-29T01:42:51;101034.28;;;-3.58;100.00
26719;BME280;14326;50.794;6.060;2023-01-29T01:45:24;101026.38;;;-3.60;100.00
26719;BME280;14326;50.794;6.060;2023-01-29T01:47:59;101024.31;;;-3.54;100.00
26719;BME280;14326;50.794;6.060;2023-01-29T01:50:37;101016.75;;;-3.61;100.00
26719;BME280;14326;50.794;6.060;2023-01-29T01:53:14;101012.19;;;-3.53;100.00
26719;BME280;14326;50.794;6.060;2023-01-29T01:55:59;101002.97;;;-3.50;100.00
26719;BME280;14326;50.794;6.060;2023-01-29T01:58:41;101005.03;;;-3.56;100.00
26719;BME280;14326;50.794;6.060;2023-01-29T02:01:29;101007.88;;;-3.73;100.00
26719;BME280;14326;50.794;6.060;2023-01-29T02:04:04;101003.69;;;-3.71;100.00
26719;BME280;14326;50.794;6.060;2023-01-29T02:06:51;101004.22;;;-3.75;100.00
26719;BME280;14326;50.794;6.060;2023-01-29T02:09:45;101009.41;;;-3.75;100.00
26719;BME280;14326;50.794;6.060;2023-01-29T02:12:24;101013.63;;;-3.57;100.00
26719;BME280;14326;50.794;6.060;2023-01-29T02:15:07;101015.97;;;-3.60;100.00
26719;BME280;14326;50.794;6.060;2023-01-29T02:17:38;101019.97;;;-3.63;100.00
26719;BME280;14326;50.794;6.060;2023-01-29T02:20:27;101014.59;;;-3.75;100.00
26719;BME280;14326;50.794;6.060;2023-01-29T02:26:39;101013.59;;;-3.67;100.00
26719;BME280;14326;50.794;6.060;2023-01-29T02:29:27;101012.69;;;-3.57;100.00
26719;BME280;14326;50.794;6.060;2023-01-29T02:32:19;101009.22;;;-3.48;100.00
26719;BME280;14326;50.794;6.060;2023-01-29T02:35:03;101017.13;;;-3.56;100.00
26719;BME280;14326;50.794;6.060;2023-01-29T02:38:09;101014.75;;;-3.74;100.00
26719;BME280;14326;50.794;6.060;2023-01-29T02:40:43;101012.75;;;-3.86;100.00
26719;BME280;14326;50.794;6.060;2023-01-29T02:43:26;101024.59;;;-3.90;100.00
26719;BME280;14326;50.794;6.060;2023-01-29T02:46:10;101022.75;;;-3.91;100.00
26719;BME280;14326;50.794;6.060;2023-01-29T02:48:53;101039.81;;;-3.84;100.00
26719;BME280;14326;50.794;6.060;2023-01-29T02:51:32;101042.41;;;-3.84;100.00
26719;BME280;14326;50.794;6.060;2023-01-29T02:54:06;101044.72;;;-3.87;100.00
26719;BME280;14326;50.794;6.060;2023-01-29T02:56:52;101056.63;;;-3.99;100.00
26719;BME280;14326;50.794;6.060;2023-01-29T02:59:24;101055.31;;;-4.04;100.00
26719;BME280;14326;50.794;6.060;2023-01-29T03:01:56;101058.66;;;-4.05;100.00
26719;BME280;14326;50.794;6.060;2023-01-29T03:04:28;101061.28;;;-4.05;100.00
26719;BME280;14326;50.794;6.060;2023-01-29T03:06:59;101071.13;;;-4.12;100.00
26719;BME280;14326;50.794;6.060;2023-01-29T03:09:31;101070.09;;;-4.14;100.00
26719;BME280;14326;50.794;6.060;2023-01-29T03:12:04;101063.06;;;-4.15;100.00
26719;BME280;14326;50.794;6.060;2023-01-29T03:14:45;101062.78;;;-4.18;100.00
26719;BME280;14326;50.794;6.060;2023-01-29T03:17:32;101059.69;;;-4.14;100.00
26719;BME280;14326;50.794;6.060;2023-01-29T03:20:01;101058.94;;;-4.13;100.00
26719;BME280;14326;50.794;6.060;2023-01-29T03:22:31;101064.31;;;-4.01;100.00
26719;BME280;14326;50.794;6.060;2023-01-29T03:24:59;101056.31;;;-4.13;100.00
26719;BME280;14326;50.794;6.060;2023-01-29T03:27:47;101054.34;;;-4.15;100.00
26719;BME280;14326;50.794;6.060;2023-01-29T03:30:34;101048.75;;;-4.20;100.00
26719;BME280;14326;50.794;6.060;2023-01-29T03:33:22;101037.44;;;-4.20;100.00
26719;BME280;14326;50.794;6.060;2023-01-29T03:35:55;101041.06;;;-4.18;100.00
26719;BME280;14326;50.794;6.060;2023-01-29T03:38:25;101041.72;;;-4.21;100.00
26719;BME280;14326;50.794;6.060;2023-01-29T03:41:00;101044.31;;;-4.21;100.00
26719;BME280;14326;50.794;6.060;2023-01-29T03:43:32;101046.25;;;-4.18;100.00
26719;BME280;14326;50.794;6.060;2023-01-29T03:46:05;101040.81;;;-4.21;100.00
26719;BME280;14326;50.794;6.060;2023-01-29T03:48:38;101039.38;;;-4.18;100.00
26719;BME280;14326;50.794;6.060;2023-01-29T03:51:15;101041.53;;;-4.03;100.00
26719;BME280;14326;50.794;6.060;2023-01-29T03:53:47;101043.53;;;-4.01;100.00
26719;BME280;14326;50.794;6.060;2023-01-29T03:56:25;101041.94;;;-3.99;100.00
26719;BME280;14326;50.794;6.060;2023-01-29T03:58:59;101044.00;;;-4.05;100.00
26719;BME280;14326;50.794;6.060;2023-01-29T04:01:32;101041.97;;;-4.18;100.00
26719;BME280;14326;50.794;6.060;2023-01-29T04:04:13;101046.38;;;-4.27;100.00
26719;BME280;14326;50.794;6.060;2023-01-29T04:06:51;101049.47;;;-4.31;100.00
26719;BME280;14326;50.794;6.060;2023-01-29T04:09:26;101046.56;;;-4.15;100.00
26719;BME280;14326;50.794;6.060;2023-01-29T04:12:03;101041.63;;;-4.12;100.00
26719;BME280;14326;50.794;6.060;2023-01-29T04:14:37;101033.28;;;-4.18;100.00
26719;BME280;14326;50.794;6.060;2023-01-29T04:17:08;101024.97;;;-4.24;100.00
26719;BME280;14326;50.794;6.060;2023-01-29T04:19:49;101016.75;;;-4.29;100.00
26719;BME280;14326;50.794;6.060;2023-01-29T04:22:29;101029.47;;;-4.32;100.00
26719;BME280;14326;50.794;6.060;2023-01-29T04:25:17;101017.09;;;-4.34;100.00
26719;BME280;14326;50.794;6.060;2023-01-29T04:28:03;101009.69;;;-4.40;100.00
26719;BME280;14326;50.794;6.060;2023-01-29T04:30:34;101009.06;;;-4.37;100.00
26719;BME280;14326;50.794;6.060;2023-01-29T04:33:14;101006.31;;;-4.39;100.00
26719;BME280;14326;50.794;6.060;2023-01-29T04:36:02;100998.03;;;-4.35;100.00
26719;BME280;14326;50.794;6.060;2023-01-29T04:38:53;101005.19;;;-4.32;100.00
26719;BME280;14326;50.794;6.060;2023-01-29T04:41:38;100995.94;;;-4.39;100.00
26719;BME280;14326;50.794;6.060;2023-01-29T04:44:18;100989.19;;;-4.37;100.00
26719;BME280;14326;50.794;6.060;2023-01-29T04:46:53;100989.97;;;-4.38;100.00
26719;BME280;14326;50.794;6.060;2023-01-29T04:49:31;100985.19;;;-4.33;100.00
26719;BME280;14326;50.794;6.060;2023-01-29T04:52:08;100976.22;;;-4.37;100.00
26719;BME280;14326;50.794;6.060;2023-01-29T04:54:50;100978.16;;;-4.34;100.00
26719;BME280;14326;50.794;6.060;2023-01-29T04:57:34;100979.09;;;-4.24;100.00
26719;BME280;14326;50.794;6.060;2023-01-29T05:00:09;100978.09;;;-4.16;100.00
26719;BME280;14326;50.794;6.060;2023-01-29T05:02:42;100984.59;;;-4.21;100.00
26719;BME280;14326;50.794;6.060;2023-01-29T05:05:15;100983.28;;;-4.26;100.00
26719;BME280;14326;50.794;6.060;2023-01-29T05:07:47;100983.28;;;-4.26;100.00
26719;BME280;14326;50.794;6.060;2023-01-29T05:10:19;100989.25;;;-4.27;100.00
26719;BME280;14326;50.794;6.060;2023-01-29T05:12:58;100975.63;;;-4.24;100.00
26719;BME280;14326;50.794;6.060;2023-01-29T05:15:32;100979.91;;;-4.25;100.00
26719;BME280;14326;50.794;6.060;2023-01-29T05:18:00;100981.22;;;-4.20;100.00
26719;BME280;14326;50.794;6.060;2023-01-29T05:20:30;100990.41;;;-4.23;100.00
26719;BME280;14326;50.794;6.060;2023-01-29T05:22:59;100974.47;;;-4.18;100.00
26719;BME280;14326;50.794;6.060;2023-01-29T05:25:28;100973.47;;;-4.09;100.00
26719;BME280;14326;50.794;6.060;2023-01-29T05:27:55;100964.59;;;-4.12;100.00
26719;BME280;14326;50.794;6.060;2023-01-29T05:30:32;100969.81;;;-4.12;100.00
26719;BME280;14326;50.794;6.060;2023-01-29T05:32:59;100972.66;;;-4.19;100.00
26719;BME280;14326;50.794;6.060;2023-01-29T05:35:26;100974.47;;;-4.18;100.00
26719;BME280;14326;50.794;6.060;2023-01-29T05:37:54;100983.06;;;-4.19;100.00
26719;BME280;14326;50.794;6.060;2023-01-29T05:40:22;100984.84;;;-4.18;100.00
26719;BME280;14326;50.794;6.060;2023-01-29T05:42:49;100979.94;;;-4.15;100.00
26719;BME280;14326;50.794;6.060;2023-01-29T05:45:16;100976.06;;;-4.09;100.00
26719;BME280;14326;50.794;6.060;2023-01-29T05:47:43;100980.28;;;-3.91;100.00
26719;BME280;14326;50.794;6.060;2023-01-29T05:50:10;100975.06;;;-3.91;100.00
26719;BME280;14326;50.794;6.060;2023-01-29T05:52:37;100969.34;;;-3.87;100.00
26719;BME280;14326;50.794;6.060;2023-01-29T05:55:05;100972.25;;;-3.74;100.00
26719;BME280;14326;50.794;6.060;2023-01-29T05:57:33;100979.25;;;-3.83;100.00
26719;BME280;14326;50.794;6.060;2023-01-29T06:00:00;100969.13;;;-3.80;100.00
26719;BME280;14326;50.794;6.060;2023-01-29T06:02:28;100973.41;;;-3.71;100.00
26719;BME280;14326;50.794;6.060;2023-01-29T06:04:55;100960.94;;;-3.64;100.00
26719;BME280;14326;50.794;6.060;2023-01-29T06:07:22;100969.81;;;-3.62;100.00
26719;BME280;14326;50.794;6.060;2023-01-29T06:09:48;100974.47;;;-3.58;100.00
26719;BME280;14326;50.794;6.060;2023-01-29T06:12:15;100969.16;;;-3.50;100.00
26719;BME280;14326;50.794;6.060;2023-01-29T06:14:43;100962.91;;;-3.52;100.00
26719;BME280;14326;50.794;6.060;2023-01-29T06:17:10;100957.84;;;-3.50;100.00
26719;BME280;14326;50.794;6.060;2023-01-29T06:19:36;100953.56;;;-3.40;100.00
26719;BME280;14326;50.794;6.060;2023-01-29T06:22:03;100944.06;;;-3.29;100.00
26719;BME280;14326;50.794;6.060;2023-01-29T06:24:30;100946.13;;;-3.35;100.00
26719;BME280;14326;50.794;6.060;2023-01-29T06:26:57;100934.81;;;-3.36;100.00
26719;BME280;14326;50.794;6.060;2023-01-29T06:29:24;100948.88;;;-3.34;100.00
26719;BME280;14326;50.794;6.060;2023-01-29T06:31:51;100963.84;;;-3.31;100.00
26719;BME280;14326;50.794;6.060;2023-01-29T06:34:18;100966.84;;;-3.26;100.00
26719;BME280;14326;50.794;6.060;2023-01-29T06:36:45;100987.63;;;-3.16;100.00
26719;BME280;14326;50.794;6.060;2023-01-29T06:39:11;100992.97;;;-3.05;100.00
26719;BME280;14326;50.794;6.060;2023-01-29T06:41:38;100993.84;;;-2.94;100.00
26719;BME280;14326;50.794;6.060;2023-01-29T06:44:04;101002.59;;;-2.83;100.00
26719;BME280;14326;50.794;6.060;2023-01-29T06:46:31;101004.41;;;-2.72;100.00
26719;BME280;14326;50.794;6.060;2023-01-29T06:49:00;101012.44;;;-2.69;100.00
26719;BME280;14326;50.794;6.060;2023-01-29T06:51:26;101012.59;;;-2.68;100.00
26719;BME280;14326;50.794;6.060;2023-01-29T06:53:53;101023.50;;;-2.62;100.00
26719;BME280;14326;50.794;6.060;2023-01-29T06:56:20;101026.75;;;-2.54;100.00
26719;BME280;14326;50.794;6.060;2023-01-29T06:58:47;101022.44;;;-2.43;100.00
26719;BME280;14326;50.794;6.060;2023-01-29T07:01:14;101022.53;;;-2.32;100.00
26719;BME280;14326;50.794;6.060;2023-01-29T07:03:41;101023.41;;;-2.21;100.00
26719;BME280;14326;50.794;6.060;2023-01-29T07:06:09;101024.69;;;-2.16;100.00
26719;BME280;14326;50.794;6.060;2023-01-29T07:08:36;101017.63;;;-2.07;100.00
26719;BME280;14326;50.794;6.060;2023-01-29T07:11:03;101020.06;;;-1.98;100.00
26719;BME280;14326;50.794;6.060;2023-01-29T07:13:30;101019.63;;;-1.93;100.00
26719;BME280;14326;50.794;6.060;2023-01-29T07:15:57;101024.44;;;-1.87;100.00
26719;BME280;14326;50.794;6.060;2023-01-29T07:18:24;101009.28;;;-1.81;100.00
26719;BME280;14326;50.794;6.060;2023-01-29T07:20:51;101002.84;;;-1.75;100.00
26719;BME280;14326;50.794;6.060;2023-01-29T07:23:19;100994.47;;;-1.71;100.00
26719;BME280;14326;50.794;6.060;2023-01-29T07:25:45;100978.81;;;-1.71;100.00
26719;BME280;14326;50.794;6.060;2023-01-29T07:28:14;100967.88;;;-1.67;100.00
26719;BME280;14326;50.794;6.060;2023-01-29T07:30:41;100975.13;;;-1.62;100.00
26719;BME280;14326;50.794;6.060;2023-01-29T07:33:10;100970.41;;;-1.56;100.00
26719;BME280;14326;50.794;6.060;2023-01-29T07:35:40;100963.84;;;-1.51;100.00
26719;BME280;14326;50.794;6.060;2023-01-29T07:38:20;100974.75;;;-1.45;100.00
26719;BME280;14326;50.794;6.060;2023-01-29T07:40:54;100979.53;;;-1.40;100.00
26719;BME280;14326;50.794;6.060;2023-01-29T07:43:37;100973.09;;;-1.33;100.00
26719;BME280;14326;50.794;6.060;2023-01-29T07:46:06;100970.19;;;-1.26;100.00
26719;BME280;14326;50.794;6.060;2023-01-29T07:48:33;100971.44;;;-1.21;100.00
26719;BME280;14326;50.794;6.060;2023-01-29T07:51:00;100966.22;;;-1.21;100.00
26719;BME280;14326;50.794;6.060;2023-01-29T07:53:29;100964.88;;;-1.16;100.00
26719;BME280;14326;50.794;6.060;2023-01-29T07:55:56;100966.81;;;-1.13;100.00
26719;BME280;14326;50.794;6.060;2023-01-29T07:58:23;100974.22;;;-1.08;100.00
26719;BME280;14326;50.794;6.060;2023-01-29T08:00:49;100979.91;;;-1.02;100.00
26719;BME280;14326;50.794;6.060;2023-01-29T08:03:17;100989.00;;;-0.97;100.00
26719;BME280;14326;50.794;6.060;2023-01-29T08:05:46;100983.97;;;-0.94;100.00
26719;BME280;14326;50.794;6.060;2023-01-29T08:08:13;100981.75;;;-0.89;100.00
26719;BME280;14326;50.794;6.060;2023-01-29T08:10:41;100977.66;;;-0.86;100.00
26719;BME280;14326;50.794;6.060;2023-01-29T08:13:08;100982.44;;;-0.80;100.00
26719;BME280;14326;50.794;6.060;2023-01-29T08:15:35;100980.84;;;-0.78;100.00
26719;BME280;14326;50.794;6.060;2023-01-29T08:18:02;100970.88;;;-0.72;100.00
26719;BME280;14326;50.794;6.060;2023-01-29T08:20:29;100965.72;;;-0.70;100.00
26719;BME280;14326;50.794;6.060;2023-01-29T08:22:59;100973.56;;;-0.70;100.00
26719;BME280;14326;50.794;6.060;2023-01-29T08:25:26;100973.81;;;-0.67;100.00
26719;BME280;14326;50.794;6.060;2023-01-29T08:27:55;100977.69;;;-0.62;100.00
26719;BME280;14326;50.794;6.060;2023-01-29T08:30:22;100981.09;;;-0.63;100.00
26719;BME280;14326;50.794;6.060;2023-01-29T08:32:49;100970.75;;;-0.62;100.00
26719;BME280;14326;50.794;6.060;2023-01-29T08:35:15;100969.72;;;-0.64;100.00
26719;BME280;14326;50.794;6.060;2023-01-29T08:37:42;100968.81;;;-0.64;100.00
26719;BME280;14326;50.794;6.060;2023-01-29T08:40:10;100975.06;;;-0.62;100.00
26719;BME280;14326;50.794;6.060;2023-01-29T08:42:37;100988.38;;;-0.59;100.00
26719;BME280;14326;50.794;6.060;2023-01-29T08:45:08;100992.78;;;-0.58;100.00
26719;BME280;14326;50.794;6.060;2023-01-29T08:47:35;100989.72;;;-0.53;100.00
26719;BME280;14326;50.794;6.060;2023-01-29T08:50:01;100983.03;;;-0.49;100.00
26719;BME280;14326;50.794;6.060;2023-01-29T08:52:31;100984.28;;;-0.44;100.00
26719;BME280;14326;50.794;6.060;2023-01-29T08:54:57;100984.03;;;-0.47;100.00
26719;BME280;14326;50.794;6.060;2023-01-29T08:57:25;100987.03;;;-0.43;100.00
26719;BME280;14326;50.794;6.060;2023-01-29T08:59:52;100982.44;;;-0.45;100.00
26719;BME280;14326;50.794;6.060;2023-01-29T09:02:20;100990.41;;;-0.44;100.00
26719;BME280;14326;50.794;6.060;2023-01-29T09:04:47;100981.66;;;-0.44;100.00
26719;BME280;14326;50.794;6.060;2023-01-29T09:07:14;100978.81;;;-0.47;100.00
26719;BME280;14326;50.794;6.060;2023-01-29T09:09:40;100977.22;;;-0.45;100.00
26719;BME280;14326;50.794;6.060;2023-01-29T09:12:07;100969.63;;;-0.42;100.00
26719;BME280;14326;50.794;6.060;2023-01-29T09:14:34;100975.84;;;-0.40;100.00
26719;BME280;14326;50.794;6.060;2023-01-29T09:17:00;100969.25;;;-0.35;100.00
26719;BME280;14326;50.794;6.060;2023-01-29T09:19:31;100957.69;;;-0.27;100.00
26719;BME280;14326;50.794;6.060;2023-01-29T09:21:58;100956.31;;;-0.22;100.00
26719;BME280;14326;50.794;6.060;2023-01-29T09:24:25;100952.91;;;-0.21;100.00
26719;BME280;14326;50.794;6.060;2023-01-29T09:26:51;100941.84;;;-0.17;100.00
26719;BME280;14326;50.794;6.060;2023-01-29T09:29:18;100945.81;;;-0.10;100.00
26719;BME280;14326;50.794;6.060;2023-01-29T09:31:44;100950.25;;;-0.09;100.00
26719;BME280;14326;50.794;6.060;2023-01-29T09:34:11;100955.63;;;-0.08;100.00
26719;BME280;14326;50.794;6.060;2023-01-29T09:36:39;100950.81;;;-0.02;100.00
26719;BME280;14326;50.794;6.060;2023-01-29T09:39:06;100956.25;;;0.02;100.00
26719;BME280;14326;50.794;6.060;2023-01-29T09:41:44;100944.22;;;0.04;100.00
26719;BME280;14326;50.794;6.060;2023-01-29T09:44:19;100941.00;;;0.08;100.00
26719;BME280;14326;50.794;6.060;2023-01-29T09:46:51;100944.41;;;0.07;100.00
26719;BME280;14326;50.794;6.060;2023-01-29T09:49:24;100943.31;;;0.03;100.00
26719;BME280;14326;50.794;6.060;2023-01-29T09:51:56;100934.53;;;0.03;100.00
26719;BME280;14326;50.794;6.060;2023-01-29T09:54:29;100935.34;;;0.02;100.00
26719;BME280;14326;50.794;6.060;2023-01-29T09:56:58;100937.75;;;-0.02;100.00
26719;BME280;14326;50.794;6.060;2023-01-29T09:59:28;100929.31;;;0.03;100.00
26719;BME280;14326;50.794;6.060;2023-01-29T10:02:02;100927.03;;;0.07;100.00
26719;BME280;14326;50.794;6.060;2023-01-29T10:05:08;100919.53;;;0.12;100.00
26719;BME280;14326;50.794;6.060;2023-01-29T10:10:45;100926.41;;;0.23;100.00
26719;BME280;14326;50.794;6.060;2023-01-29T10:13:20;100922.63;;;0.31;98.89
26719;BME280;14326;50.794;6.060;2023-01-29T10:16:04;100917.81;;;0.37;98.65
26719;BME280;14326;50.794;6.060;2023-01-29T10:21:59;100910.03;;;0.50;98.15
26719;BME280;14326;50.794;6.060;2023-01-29T10:24:36;100906.00;;;0.55;98.11
26719;BME280;14326;50.794;6.060;2023-01-29T10:27:11;100905.31;;;0.58;97.71
26719;BME280;14326;50.794;6.060;2023-01-29T10:29:40;100897.09;;;0.65;97.54
26719;BME280;14326;50.794;6.060;2023-01-29T10:32:12;100899.00;;;0.67;98.01
26719;BME280;14326;50.794;6.060;2023-01-29T10:34:44;100902.94;;;0.74;98.30
26719;BME280;14326;50.794;6.060;2023-01-29T10:37:15;100895.41;;;0.78;97.46
26719;BME280;14326;50.794;6.060;2023-01-29T10:39:44;100887.84;;;0.83;97.27
26719;BME280;14326;50.794;6.060;2023-01-29T10:42:19;100883.38;;;0.94;96.53
26719;BME280;14326;50.794;6.060;2023-01-29T10:44:57;100873.97;;;0.97;96.70
26719;BME280;14326;50.794;6.060;2023-01-29T10:47:45;100868.47;;;1.06;96.36
26719;BME280;14326;50.794;6.060;2023-01-29T10:50:24;100872.19;;;1.09;96.09
26719;BME280;14326;50.794;6.060;2023-01-29T10:53:15;100875.91;;;1.13;96.28
26719;BME280;14326;50.794;6.060;2023-01-29T10:55:53;100880.47;;;1.15;95.37
26719;BME280;14326;50.794;6.060;2023-01-29T10:58:29;100877.34;;;1.21;95.34
26719;BME280;14326;50.794;6.060;2023-01-29T11:00:59;100880.13;;;1.24;94.63
26719;BME280;14326;50.794;6.060;2023-01-29T11:03:27;100875.72;;;1.23;94.15
26719;BME280;14326;50.794;6.060;2023-01-29T11:06:01;100872.09;;;1.21;95.21
26719;BME280;14326;50.794;6.060;2023-01-29T11:08:33;100862.81;;;1.26;95.14
26719;BME280;14326;50.794;6.060;2023-01-29T11:11:06;100856.97;;;1.30;94.76
26719;BME280;14326;50.794;6.060;2023-01-29T11:13:37;100860.31;;;1.28;94.58
26719;BME280;14326;50.794;6.060;2023-01-29T11:16:07;100855.34;;;1.32;94.52
26719;BME280;14326;50.794;6.060;2023-01-29T11:18:53;100857.06;;;1.32;95.04
26719;BME280;14326;50.794;6.060;2023-01-29T11:21:20;100849.31;;;1.33;94.58
26719;BME280;14326;50.794;6.060;2023-01-29T11:23:48;100842.47;;;1.35;94.52
26719;BME280;14326;50.794;6.060;2023-01-29T11:26:19;100848.19;;;1.43;93.77
26719;BME280;14326;50.794;6.060;2023-01-29T11:28:50;100853.94;;;1.37;93.81
26719;BME280;14326;50.794;6.060;2023-01-29T11:31:20;100847.72;;;1.35;94.17
26719;BME280;14326;50.794;6.060;2023-01-29T11:33:49;100837.50;;;1.40;93.72
26719;BME280;14326;50.794;6.060;2023-01-29T11:36:30;100837.50;;;1.40;93.92
26719;BME280;14326;50.794;6.060;2023-01-29T11:39:11;100838.91;;;1.48;94.17
26719;BME280;14326;50.794;6.060;2023-01-29T11:41:43;100836.66;;;1.54;94.37
26719;BME280;14326;50.794;6.060;2023-01-29T11:44:27;100840.13;;;1.53;92.93
26719;BME280;14326;50.794;6.060;2023-01-29T11:46:55;100829.72;;;1.54;94.00
26719;BME280;14326;50.794;6.060;2023-01-29T11:49:29;100829.72;;;1.54;93.96
26719;BME280;14326;50.794;6.060;2023-01-29T11:51:59;100815.81;;;1.55;93.12
26719;BME280;14326;50.794;6.060;2023-01-29T11:54:30;100809.94;;;1.59;93.52
26719;BME280;14326;50.794;6.060;2023-01-29T11:57:00;100804.16;;;1.65;93.57
26719;BME280;14326;50.794;6.060;2023-01-29T11:59:39;100791.16;;;1.67;93.45
26719;BME280;14326;50.794;6.060;2023-01-29T12:02:22;100790.34;;;1.68;93.53
26719;BME280;14326;50.794;6.060;2023-01-29T12:04:51;100783.41;;;1.68;93.19
26719;BME280;14326;50.794;6.060;2023-01-29T12:07:20;100777.47;;;1.71;93.36
26719;BME280;14326;50.794;6.060;2023-01-29T12:09:49;100781.16;;;1.74;93.18
26719;BME280;14326;50.794;6.060;2023-01-29T12:12:27;100770.31;;;1.83;92.19
26719;BME280;14326;50.794;6.060;2023-01-29T12:15:16;100759.56;;;1.78;93.07
26719;BME280;14326;50.794;6.060;2023-01-29T12:17:49;100757.84;;;1.79;92.38
26719;BME280;14326;50.794;6.060;2023-01-29T12:20:22;100751.84;;;1.94;92.25
26719;BME280;14326;50.794;6.060;2023-01-29T12:22:56;100749.88;;;2.05;92.01
26719;BME280;14326;50.794;6.060;2023-01-29T12:25:34;100736.22;;;2.11;91.21
26719;BME280;14326;50.794;6.060;2023-01-29T12:28:11;100722.53;;;2.16;91.22
26719;BME280;14326;50.794;6.060;2023-01-29T12:30:49;100702.81;;;2.23;90.13
26719;BME280;14326;50.794;6.060;2023-01-29T12:33:25;100696.13;;;2.28;89.83
26719;BME280;14326;50.794;6.060;2023-01-29T12:36:01;100684.88;;;2.30;89.70
26719;BME280;14326;50.794;6.060;2023-01-29T12:38:30;100682.47;;;2.33;90.12
26719;BME280;14326;50.794;6.060;2023-01-29T12:41:02;100678.56;;;2.41;90.22
26719;BME280;14326;50.794;6.060;2023-01-29T12:43:37;100678.09;;;2.48;90.15
26719;BME280;14326;50.794;6.060;2023-01-29T12:46:07;100671.22;;;2.51;89.44
26719;BME280;14326;50.794;6.060;2023-01-29T12:48:38;100661.22;;;2.60;88.74
26719;BME280;14326;50.794;6.060;2023-01-29T12:51:10;100659.44;;;2.59;87.75
26719;BME280;14326;50.794;6.060;2023-01-29T12:53:44;100656.63;;;2.56;88.03
26719;BME280;14326;50.794;6.060;2023-01-29T12:56:15;100654.19;;;2.59;88.27
26719;BME280;14326;50.794;6.060;2023-01-29T12:58:53;100652.72;;;2.64;88.32
26719;BME280;14326;50.794;6.060;2023-01-29T13:01:26;100652.72;;;2.64;88.38
26719;BME280;14326;50.794;6.060;2023-01-29T13:03:58;100645.19;;;2.70;88.73
26719;BME280;14326;50.794;6.060;2023-01-29T13:06:30;100633.31;;;2.76;87.44
26719;BME280;14326;50.794;6.060;2023-01-29T13:09:02;100634.84;;;2.73;88.66
26719;BME280;14326;50.794;6.060;2023-01-29T13:11:35;100636.66;;;2.74;88.13
26719;BME280;14326;50.794;6.060;2023-01-29T13:14:08;100628.06;;;2.76;88.04
26719;BME280;14326;50.794;6.060;2023-01-29T13:16:42;100623.22;;;2.84;87.85
26719;BME280;14326;50.794;6.060;2023-01-29T13:19:19;100620.44;;;2.81;87.61
26719;BME280;14326;50.794;6.060;2023-01-29T13:21:49;100613.59;;;2.84;88.43
26719;BME280;14326;50.794;6.060;2023-01-29T13:24:20;100617.31;;;2.88;87.93
26719;BME280;14326;50.794;6.060;2023-01-29T13:26:48;100613.03;;;2.90;88.50